createdAt,value
2018-05-04T00:00:53.287Z,6.50
2018-05-04T00:01:53.221Z,6.30
2018-05-04T00:03:53.245Z,6.50
2018-05-04T00:04:54.156Z,6.80
2018-05-04T00:06:57.321Z,6.60
2018-05-04T00:07:57.292Z,6.40
2018-05-04T00:09:58.609Z,6.50
2018-05-04T00:10:58.085Z,7.00
2018-05-04T00:12:58.691Z,6.90
2018-05-04T00:13:58.008Z,6.00
2018-05-04T00:15:56.015Z,6.70
2018-05-04T00:16:56.007Z,7.00
2018-05-04T00:18:56.456Z,6.30
2018-05-04T00:19:57.841Z,6.50
2018-05-04T00:21:56.895Z,6.40
2018-05-04T00:22:57.785Z,6.10
2018-05-04T00:24:58.239Z,6.40
2018-05-04T00:25:57.164Z,6.80
2018-05-04T00:27:58.280Z,6.40
2018-05-04T00:28:57.679Z,6.20
2018-05-04T00:30:58.082Z,6.40
2018-05-04T00:31:58.679Z,6.60
2018-05-04T00:33:59.584Z,6.80
2018-05-04T00:35:00.056Z,7.20
2018-05-04T00:36:59.799Z,6.20
2018-05-04T00:37:59.519Z,6.90
2018-05-04T00:40:00.604Z,6.50
2018-05-04T00:40:59.446Z,6.50
2018-05-04T00:43:00.498Z,6.70
2018-05-04T00:44:00.994Z,6.20
2018-05-04T00:46:00.882Z,5.80
2018-05-04T00:47:00.268Z,6.10
2018-05-04T00:49:00.877Z,5.70
2018-05-04T00:50:00.765Z,6.70
2018-05-04T00:52:01.353Z,6.50
2018-05-04T00:53:01.647Z,6.60
2018-05-04T00:55:02.612Z,6.40
2018-05-04T00:56:01.583Z,6.00
2018-05-04T00:58:03.140Z,6.40
2018-05-04T00:59:02.109Z,7.00
2018-05-04T01:01:02.623Z,6.10
2018-05-04T01:02:18.397Z,5.80
2018-05-04T01:04:19.047Z,5.90
2018-05-04T01:05:17.660Z,6.70
2018-05-04T01:07:03.403Z,6.10
2018-05-04T01:08:19.003Z,5.90
2018-05-04T01:10:03.877Z,5.90
2018-05-04T01:11:03.772Z,6.60
2018-05-04T01:13:04.321Z,5.70
2018-05-04T01:14:04.269Z,6.10
2018-05-04T01:16:05.713Z,6.00
2018-05-04T01:17:05.193Z,6.00
2018-05-04T01:19:05.714Z,5.80
2018-05-04T01:20:05.101Z,6.60
2018-05-04T01:22:06.133Z,5.60
2018-05-04T01:23:05.559Z,5.80
2018-05-04T01:25:07.042Z,5.80
2018-05-04T01:26:06.951Z,6.20
2018-05-04T01:28:06.978Z,5.90
2018-05-04T01:29:07.963Z,5.40
2018-05-04T01:31:07.436Z,5.70
2018-05-04T01:32:07.015Z,5.80
2018-05-04T01:34:07.397Z,6.20
2018-05-04T01:35:07.855Z,6.20
2018-05-04T01:37:09.926Z,5.60
2018-05-04T01:38:07.837Z,5.20
2018-05-04T01:40:08.294Z,5.70
2018-05-04T01:41:08.264Z,5.90
2018-05-04T01:43:09.159Z,6.30
2018-05-04T01:44:08.669Z,5.90
2018-05-04T01:46:10.165Z,5.70
2018-05-04T01:47:09.167Z,6.20
2018-05-04T01:49:09.574Z,5.60
2018-05-04T01:50:09.463Z,5.80
2018-05-04T01:52:10.429Z,5.90
2018-05-04T01:53:09.944Z,5.80
2018-05-04T01:55:10.440Z,6.40
2018-05-04T01:56:10.351Z,5.80
2018-05-04T01:58:11.387Z,6.30
2018-05-04T01:59:10.824Z,5.60
2018-05-04T02:01:11.293Z,6.00
2018-05-04T02:02:11.264Z,6.20
2018-05-04T02:04:12.235Z,6.40
2018-05-04T02:05:12.676Z,6.40
2018-05-04T02:07:13.282Z,6.20
2018-05-04T02:08:13.226Z,6.20
2018-05-04T02:10:13.130Z,6.50
2018-05-04T02:11:14.145Z,5.50
2018-05-04T02:13:14.127Z,6.40
2018-05-04T02:14:13.099Z,6.80
2018-05-04T02:16:13.613Z,6.40
2018-05-04T02:17:13.553Z,6.00
2018-05-04T02:19:12.060Z,6.30
2018-05-04T02:20:12.481Z,6.20
2018-05-04T02:22:15.681Z,5.80
2018-05-04T02:23:15.649Z,6.30
2018-05-04T02:25:16.343Z,6.20
2018-05-04T02:26:16.171Z,6.00
2018-05-04T02:28:16.677Z,6.50
2018-05-04T02:29:16.575Z,6.40
2018-05-04T02:31:18.509Z,6.10
2018-05-04T02:32:17.447Z,6.00
2018-05-04T02:34:18.913Z,6.30
2018-05-04T02:35:17.871Z,6.40
2018-05-04T02:37:17.940Z,6.90
2018-05-04T02:38:18.279Z,5.80
2018-05-04T02:40:18.435Z,6.30
2018-05-04T02:41:19.820Z,6.40
2018-05-04T02:43:19.802Z,6.10
2018-05-04T02:44:19.705Z,6.30
2018-05-04T02:46:20.120Z,6.40
2018-05-04T02:47:20.066Z,6.40
2018-05-04T02:49:21.390Z,6.40
2018-05-04T02:50:20.518Z,6.70
2018-05-04T02:52:20.955Z,6.60
2018-05-04T02:53:21.404Z,6.40
2018-05-04T02:55:26.415Z,6.50
2018-05-04T02:56:24.893Z,6.50
2018-05-04T02:58:25.454Z,6.40
2018-05-04T02:59:25.886Z,6.60
2018-05-04T03:01:25.821Z,6.80
2018-05-04T03:02:25.816Z,7.10
2018-05-04T03:04:26.296Z,6.70
2018-05-04T03:05:26.246Z,6.00
2018-05-04T03:07:26.871Z,6.80
2018-05-04T03:08:26.687Z,6.90
2018-05-04T03:10:27.625Z,7.20
2018-05-04T03:11:27.670Z,6.50
2018-05-04T03:13:27.715Z,7.10
2018-05-04T03:14:27.589Z,7.10
2018-05-04T03:16:28.241Z,7.10
2018-05-04T03:17:27.961Z,7.40
2018-05-04T03:19:28.877Z,6.90
2018-05-04T03:20:29.848Z,7.50
2018-05-04T03:22:28.977Z,7.30
2018-05-04T03:23:28.943Z,7.20
2018-05-04T03:25:30.331Z,7.70
2018-05-04T03:26:29.792Z,8.90
2018-05-04T03:28:29.696Z,8.10
2018-05-04T03:29:29.638Z,7.80
2018-05-04T03:31:31.229Z,7.80
2018-05-04T03:32:30.173Z,7.70
2018-05-04T03:34:32.122Z,7.80
2018-05-04T03:35:30.526Z,7.40
2018-05-04T03:37:31.126Z,7.60
2018-05-04T03:38:31.114Z,6.70
2018-05-04T03:40:32.480Z,7.20
2018-05-04T03:41:31.405Z,7.10
2018-05-04T03:43:32.548Z,8.00
2018-05-04T03:44:32.412Z,7.80
2018-05-04T03:46:32.423Z,7.30
2018-05-04T03:47:32.375Z,7.80
2018-05-04T03:49:32.863Z,8.50
2018-05-04T03:50:32.804Z,7.60
2018-05-04T03:52:34.697Z,7.90
2018-05-04T03:53:33.715Z,7.70
2018-05-04T03:55:34.179Z,8.50
2018-05-04T03:56:34.090Z,7.80
2018-05-04T03:58:35.064Z,7.40
2018-05-04T03:59:34.184Z,7.60
2018-05-04T04:01:35.521Z,8.40
2018-05-04T04:02:34.540Z,8.70
2018-05-04T04:04:35.419Z,7.70
2018-05-04T04:05:35.418Z,7.80
2018-05-04T04:07:35.473Z,7.90
2018-05-04T04:08:35.895Z,8.50
2018-05-04T04:10:36.151Z,8.20
2018-05-04T04:11:35.804Z,9.30
2018-05-04T04:13:37.784Z,8.00
2018-05-04T04:14:37.681Z,8.50
2018-05-04T04:16:40.264Z,7.70
2018-05-04T04:17:38.659Z,8.10
2018-05-04T04:19:39.374Z,7.90
2018-05-04T04:20:39.562Z,8.30
2018-05-04T04:22:41.175Z,7.60
2018-05-04T04:23:40.664Z,8.00
2018-05-04T04:25:41.087Z,8.90
2018-05-04T04:26:41.039Z,9.00
2018-05-04T04:28:41.493Z,9.30
2018-05-04T04:29:41.971Z,8.20
2018-05-04T04:31:43.329Z,8.10
2018-05-04T04:32:43.286Z,9.40
2018-05-04T04:34:43.556Z,8.70
2018-05-04T04:35:43.680Z,8.60
2018-05-04T04:37:43.601Z,9.00
2018-05-04T04:38:43.674Z,8.10
2018-05-04T04:40:46.045Z,8.40
2018-05-04T04:41:46.091Z,8.60
2018-05-04T04:43:46.236Z,8.60
2018-05-04T04:44:46.573Z,7.90
2018-05-04T04:46:47.131Z,8.60
2018-05-04T04:47:46.086Z,8.50
2018-05-04T04:49:46.994Z,7.90
2018-05-04T04:50:46.977Z,9.10
2018-05-04T04:52:47.033Z,8.90
2018-05-04T04:53:47.577Z,9.30
2018-05-04T04:55:47.869Z,8.20
2018-05-04T04:56:47.872Z,8.00
2018-05-04T04:58:51.565Z,8.80
2018-05-04T04:59:51.788Z,8.60
2018-05-04T05:01:52.902Z,10.20
2018-05-04T05:02:52.204Z,7.80
2018-05-04T05:04:52.631Z,9.10
2018-05-04T05:05:52.271Z,8.20
2018-05-04T05:07:53.597Z,8.50
2018-05-04T05:08:52.610Z,9.00
2018-05-04T05:10:53.659Z,8.40
2018-05-04T05:11:53.038Z,8.20
2018-05-04T05:13:57.033Z,8.00
2018-05-04T05:14:53.951Z,9.40
2018-05-04T05:16:54.928Z,8.70
2018-05-04T05:17:53.856Z,8.90
2018-05-04T05:19:54.782Z,9.30
2018-05-04T05:20:54.796Z,10.00
2018-05-04T05:22:55.392Z,8.40
2018-05-04T05:23:54.725Z,8.90
2018-05-04T05:25:55.251Z,9.40
2018-05-04T05:26:56.691Z,8.70
2018-05-04T05:28:57.189Z,9.20
2018-05-04T05:29:55.557Z,8.80
2018-05-04T05:31:57.938Z,8.00
2018-05-04T05:32:56.057Z,8.80
2018-05-04T05:34:56.515Z,9.30
2018-05-04T05:35:56.443Z,9.20
2018-05-04T05:37:58.094Z,9.00
2018-05-04T05:38:57.476Z,9.60
2018-05-04T05:40:58.440Z,9.90
2018-05-04T05:41:58.137Z,9.00
2018-05-04T05:43:59.211Z,8.90
2018-05-04T05:44:58.636Z,9.00
2018-05-04T05:46:59.237Z,10.20
2018-05-04T05:47:59.050Z,10.50
2018-05-04T05:50:06.451Z,10.00
2018-05-04T05:51:05.458Z,10.60
2018-05-04T05:53:04.003Z,10.40
2018-05-04T05:54:04.946Z,9.70
2018-05-04T05:56:04.487Z,10.00
2018-05-04T05:57:04.901Z,9.90
2018-05-04T05:59:06.825Z,10.60
2018-05-04T06:00:05.372Z,11.90
2018-05-04T06:02:05.938Z,10.90
2018-05-04T06:03:05.326Z,10.40
2018-05-04T06:05:06.886Z,11.10
2018-05-04T06:06:06.695Z,11.80
2018-05-04T06:08:09.568Z,10.90
2018-05-04T06:09:06.984Z,10.70
2018-05-04T06:11:07.653Z,10.10
2018-05-04T06:12:07.628Z,11.10
2018-05-04T06:14:08.980Z,10.80
2018-05-04T06:15:08.469Z,10.30
2018-05-04T06:17:13.427Z,10.70
2018-05-04T06:18:13.481Z,10.10
2018-05-04T06:20:13.960Z,10.30
2018-05-04T06:21:13.877Z,10.60
2018-05-04T06:23:16.229Z,10.50
2018-05-04T06:24:14.314Z,9.90
2018-05-04T06:26:14.787Z,10.40
2018-05-04T06:27:14.830Z,9.90
2018-05-04T06:29:15.219Z,10.10
2018-05-04T06:30:16.680Z,11.10
2018-05-04T06:32:15.813Z,10.60
2018-05-04T06:33:16.195Z,10.00
2018-05-04T06:35:17.719Z,9.70
2018-05-04T06:36:17.203Z,9.10
2018-05-04T06:38:18.075Z,9.60
2018-05-04T06:39:18.051Z,9.10
2018-05-04T06:41:18.468Z,10.10
2018-05-04T06:42:18.489Z,9.80
2018-05-04T06:44:18.467Z,10.60
2018-05-04T06:45:18.405Z,9.90
2018-05-04T06:47:17.834Z,10.80
2018-05-04T06:48:17.346Z,10.30
2018-05-04T06:50:16.987Z,10.10
2018-05-04T06:51:16.948Z,10.20
2018-05-04T06:53:18.034Z,10.20
2018-05-04T06:54:17.387Z,10.50
2018-05-04T06:56:16.372Z,10.00
2018-05-04T06:57:15.496Z,10.60
2018-05-04T06:59:15.950Z,10.90
2018-05-04T07:00:16.438Z,10.00
2018-05-04T07:02:18.379Z,10.70
2018-05-04T07:03:17.416Z,11.20
2018-05-04T07:05:18.803Z,10.20
2018-05-04T07:06:18.727Z,10.60
2018-05-04T07:08:19.791Z,9.40
2018-05-04T07:09:18.239Z,10.00
2018-05-04T07:11:20.737Z,11.00
2018-05-04T07:12:19.728Z,10.70
2018-05-04T07:14:22.167Z,11.50
2018-05-04T07:15:20.172Z,10.90
2018-05-04T07:17:21.619Z,10.70
2018-05-04T07:18:22.137Z,10.50
2018-05-04T07:20:19.734Z,9.00
2018-05-04T07:21:19.698Z,10.20
2018-05-04T07:23:20.195Z,9.40
2018-05-04T07:24:20.152Z,9.00
2018-05-04T07:26:20.674Z,9.70
2018-05-04T07:27:20.580Z,9.60
2018-05-04T07:29:22.612Z,9.80
2018-05-04T07:30:22.076Z,10.30
2018-05-04T07:32:22.565Z,9.80
2018-05-04T07:33:37.156Z,10.00
2018-05-04T07:35:18.975Z,9.60
2018-05-04T07:36:19.039Z,10.30
2018-05-04T07:38:19.461Z,10.20
2018-05-04T07:39:18.960Z,9.50
2018-05-04T07:41:19.907Z,9.40
2018-05-04T07:42:19.369Z,9.40
2018-05-04T07:44:19.803Z,9.20
2018-05-04T07:45:19.791Z,8.30
2018-05-04T07:47:19.251Z,7.70
2018-05-04T07:48:19.740Z,7.70
2018-05-04T07:50:18.828Z,8.40
2018-05-04T07:51:18.339Z,7.70
2018-05-04T07:53:18.810Z,7.30
2018-05-04T07:54:18.881Z,6.80
2018-05-04T07:56:19.866Z,7.60
2018-05-04T07:57:19.244Z,7.10
2018-05-04T07:59:19.690Z,7.20
2018-05-04T08:00:19.656Z,7.80
2018-05-04T08:02:17.631Z,8.10
2018-05-04T08:03:17.657Z,7.60
2018-05-04T08:05:14.070Z,7.70
2018-05-04T08:06:14.551Z,7.70
2018-05-04T08:08:14.059Z,7.30
2018-05-04T08:09:15.059Z,7.90
2018-05-04T08:11:15.510Z,7.30
2018-05-04T08:12:14.561Z,6.80
2018-05-04T08:14:14.972Z,6.70
2018-05-04T08:15:14.972Z,7.20
2018-05-04T08:17:13.427Z,7.80
2018-05-04T08:18:14.442Z,7.00
2018-05-04T08:20:13.897Z,6.70
2018-05-04T08:21:14.455Z,6.40
2018-05-04T08:23:11.362Z,6.80
2018-05-04T08:24:11.894Z,6.70
2018-05-04T08:26:09.419Z,6.30
2018-05-04T08:27:09.412Z,6.20
2018-05-04T08:29:10.376Z,5.70
2018-05-04T08:30:09.858Z,6.80
2018-05-04T08:32:11.820Z,7.00
2018-05-04T08:33:10.509Z,7.10
2018-05-04T08:35:11.475Z,7.00
2018-05-04T08:36:10.969Z,6.70
2018-05-04T08:38:08.919Z,6.60
2018-05-04T08:39:09.938Z,6.10
2018-05-04T08:41:07.869Z,6.70
2018-05-04T08:42:07.903Z,6.80
2018-05-04T08:44:05.522Z,6.30
2018-05-04T08:45:05.546Z,6.00
2018-05-04T08:47:02.948Z,6.20
2018-05-04T08:48:02.892Z,6.50
2018-05-04T08:49:59.855Z,6.70
2018-05-04T08:50:58.876Z,6.70
2018-05-04T08:52:57.808Z,6.30
2018-05-04T08:53:57.310Z,6.60
2018-05-04T08:55:57.301Z,6.00
2018-05-04T08:56:57.239Z,6.60
2018-05-04T08:58:53.241Z,6.60
2018-05-04T08:59:54.705Z,6.60
2018-05-04T09:01:54.696Z,5.80
2018-05-04T09:02:54.663Z,6.90
2018-05-04T09:04:50.711Z,7.20
2018-05-04T09:05:50.780Z,6.60
2018-05-04T09:07:48.613Z,6.80
2018-05-04T09:08:48.615Z,6.70
2018-05-04T09:10:46.575Z,6.50
2018-05-04T09:11:46.554Z,6.40
2018-05-04T09:13:44.516Z,6.30
2018-05-04T09:14:44.535Z,6.60
2018-05-04T09:16:45.471Z,6.80
2018-05-04T09:17:46.996Z,6.80
2018-05-04T09:19:47.022Z,5.80
2018-05-04T09:20:45.487Z,5.50
2018-05-04T09:22:44.399Z,5.90
2018-05-04T09:23:43.411Z,5.80
2018-05-04T09:25:41.903Z,5.30
2018-05-04T09:26:41.894Z,6.00
2018-05-04T09:28:37.812Z,5.10
2018-05-04T09:29:37.324Z,5.30
2018-05-04T09:31:35.450Z,5.20
2018-05-04T09:32:35.243Z,5.20
2018-05-04T09:34:35.714Z,5.50
2018-05-04T09:35:35.731Z,5.10
2018-05-04T09:37:36.194Z,5.80
2018-05-04T09:38:36.183Z,5.00
2018-05-04T09:40:32.640Z,5.20
2018-05-04T09:41:32.155Z,5.50
2018-05-04T09:43:33.553Z,5.10
2018-05-04T09:44:32.592Z,4.90
2018-05-04T09:46:30.792Z,5.50
2018-05-04T09:47:30.739Z,7.00
2018-05-04T09:49:30.644Z,4.80
2018-05-04T09:50:28.790Z,5.20
2018-05-04T09:52:27.240Z,5.60
2018-05-04T09:53:26.786Z,6.30
2018-05-04T09:55:25.709Z,5.10
2018-05-04T09:56:24.721Z,5.20
2018-05-04T09:58:27.162Z,5.40
2018-05-04T09:59:25.197Z,5.20
2018-05-04T10:01:25.650Z,5.90
2018-05-04T10:02:26.217Z,5.00
2018-05-04T10:04:26.267Z,5.50
2018-05-04T10:05:26.329Z,5.80
2018-05-04T10:07:27.773Z,6.40
2018-05-04T10:08:27.761Z,6.10
2018-05-04T10:10:28.235Z,6.40
2018-05-04T10:11:29.229Z,6.40
2018-05-04T10:13:26.776Z,6.40
2018-05-04T10:14:26.211Z,6.40
2018-05-04T10:16:26.671Z,6.60
2018-05-04T10:17:26.658Z,6.60
2018-05-04T10:19:28.107Z,7.20
2018-05-04T10:20:28.067Z,6.90
2018-05-04T10:22:25.046Z,7.20
2018-05-04T10:23:25.068Z,7.30
2018-05-04T10:25:24.006Z,6.80
2018-05-04T10:26:24.025Z,7.10
2018-05-04T10:28:22.474Z,6.40
2018-05-04T10:29:20.958Z,6.90
2018-05-04T10:31:19.868Z,6.10
2018-05-04T10:32:18.914Z,6.20
2018-05-04T10:34:15.897Z,6.70
2018-05-04T10:35:15.939Z,6.90
2018-05-04T10:37:16.389Z,6.00
2018-05-04T10:38:16.402Z,6.30
2018-05-04T10:40:16.816Z,6.70
2018-05-04T10:41:16.833Z,6.00
2018-05-04T10:43:18.254Z,6.60
2018-05-04T10:44:17.318Z,6.80
2018-05-04T10:46:18.244Z,7.30
2018-05-04T10:47:17.676Z,5.90
2018-05-04T10:49:19.700Z,5.90
2018-05-04T10:50:19.239Z,6.70
2018-05-04T10:52:20.631Z,6.80
2018-05-04T10:53:20.634Z,5.70
2018-05-04T10:55:19.598Z,5.60
2018-05-04T10:56:17.770Z,6.50
2018-05-04T10:58:16.244Z,5.50
2018-05-04T10:59:16.712Z,6.40
2018-05-04T11:01:11.653Z,6.00
2018-05-04T11:02:11.642Z,6.40
2018-05-04T11:04:08.645Z,5.70
2018-05-04T11:05:07.617Z,5.70
2018-05-04T11:07:08.621Z,6.80
2018-05-04T11:08:08.573Z,6.80
2018-05-04T11:10:08.525Z,6.00
2018-05-04T11:11:08.526Z,5.80
2018-05-04T11:13:10.509Z,5.20
2018-05-04T11:14:10.499Z,5.20
2018-05-04T11:16:10.633Z,5.30
2018-05-04T11:17:10.171Z,5.00
2018-05-04T11:19:08.094Z,5.00
2018-05-04T11:20:08.091Z,5.50
2018-05-04T11:22:13.537Z,5.10
2018-05-04T11:23:13.534Z,5.00
2018-05-04T11:25:11.505Z,4.90
2018-05-04T11:26:11.566Z,4.50
2018-05-04T11:28:09.629Z,5.40
2018-05-04T11:29:09.635Z,4.90
2018-05-04T11:31:11.061Z,5.30
2018-05-04T11:32:10.066Z,6.10
2018-05-04T11:34:10.551Z,4.70
2018-05-04T11:35:10.569Z,4.90
2018-05-04T11:37:09.025Z,5.10
2018-05-04T11:38:08.521Z,4.90
2018-05-04T11:40:07.541Z,4.60
2018-05-04T11:41:06.921Z,4.70
2018-05-04T11:43:04.885Z,5.10
2018-05-04T11:44:04.938Z,4.50
2018-05-04T11:46:06.362Z,4.40
2018-05-04T11:47:05.947Z,4.80
2018-05-04T11:49:06.314Z,4.90
2018-05-04T11:50:04.297Z,5.00
2018-05-04T11:52:00.271Z,4.50
2018-05-04T11:53:00.248Z,5.20
2018-05-04T11:54:57.202Z,4.70
2018-05-04T11:55:56.716Z,4.20
2018-05-04T11:57:54.664Z,4.80
2018-05-04T11:58:56.132Z,5.20
2018-05-04T12:00:50.096Z,5.00
2018-05-04T12:01:50.617Z,4.80
2018-05-04T12:03:48.615Z,4.40
2018-05-04T12:04:48.118Z,4.00
2018-05-04T12:06:49.524Z,5.10
2018-05-04T12:07:48.517Z,4.80
2018-05-04T12:09:46.518Z,4.80
2018-05-04T12:10:48.015Z,5.00
2018-05-04T12:12:44.961Z,5.30
2018-05-04T12:13:45.370Z,5.30
2018-05-04T12:15:45.048Z,4.80
2018-05-04T12:16:43.139Z,4.90
2018-05-04T12:18:40.953Z,4.50
2018-05-04T12:19:40.959Z,4.90
2018-05-04T12:21:39.914Z,4.30
2018-05-04T12:22:38.449Z,4.00
2018-05-04T12:24:37.893Z,3.90
2018-05-04T12:25:36.572Z,3.90
2018-05-04T12:27:35.109Z,4.10
2018-05-04T12:28:34.499Z,3.90
2018-05-04T12:30:35.028Z,4.20
2018-05-04T12:31:35.483Z,4.20
2018-05-04T12:33:32.946Z,4.30
2018-05-04T12:34:32.966Z,4.20
2018-05-04T12:36:31.911Z,4.90
2018-05-04T12:37:30.907Z,4.20
2018-05-04T12:39:32.260Z,3.70
2018-05-04T12:40:31.377Z,3.70
2018-05-04T12:42:30.323Z,3.70
2018-05-04T12:43:29.536Z,3.40
2018-05-04T12:45:26.980Z,3.60
2018-05-04T12:46:26.497Z,3.50
2018-05-04T12:48:21.993Z,3.40
2018-05-04T12:49:21.999Z,3.10
2018-05-04T12:51:20.448Z,3.70
2018-05-04T12:52:20.433Z,3.20
2018-05-04T12:54:18.073Z,3.50
2018-05-04T12:55:18.579Z,3.60
2018-05-04T12:57:16.595Z,3.20
2018-05-04T12:58:16.201Z,3.60
2018-05-04T13:00:13.644Z,3.90
2018-05-04T13:01:15.122Z,3.70
2018-05-04T13:03:12.160Z,4.50
2018-05-04T13:04:12.623Z,4.40
2018-05-04T13:06:10.691Z,4.30
2018-05-04T13:07:10.677Z,4.50
2018-05-04T13:09:08.242Z,3.70
2018-05-04T13:10:07.731Z,4.20
2018-05-04T13:12:05.802Z,3.20
2018-05-04T13:13:05.732Z,4.00
2018-05-04T13:15:01.668Z,4.30
2018-05-04T13:16:01.700Z,3.60
2018-05-04T13:17:58.163Z,4.00
2018-05-04T13:18:58.115Z,4.50
2018-05-04T13:20:53.640Z,4.50
2018-05-04T13:21:53.584Z,4.10
2018-05-04T13:23:51.532Z,4.00
2018-05-04T13:24:51.577Z,4.30
2018-05-04T13:26:51.564Z,4.40
2018-05-04T13:27:50.531Z,4.20
2018-05-04T13:29:48.000Z,4.40
2018-05-04T13:30:47.688Z,4.40
2018-05-04T13:32:43.629Z,4.50
2018-05-04T13:33:44.112Z,5.20
2018-05-04T13:35:41.092Z,3.50
2018-05-04T13:36:41.063Z,4.40
2018-05-04T13:38:42.012Z,3.90
2018-05-04T13:39:42.013Z,4.20
2018-05-04T13:41:42.474Z,3.90
2018-05-04T13:42:42.446Z,4.40
2018-05-04T13:44:39.482Z,4.60
2018-05-04T13:45:39.433Z,3.90
2018-05-04T13:47:36.461Z,4.40
2018-05-04T13:48:35.469Z,3.90
2018-05-04T13:50:36.932Z,4.50
2018-05-04T13:51:35.936Z,4.70
2018-05-04T13:53:34.945Z,5.90
2018-05-04T13:54:35.843Z,5.70
2018-05-04T13:56:33.033Z,6.60
2018-05-04T13:57:31.975Z,5.00
2018-05-04T13:59:30.938Z,4.70
2018-05-04T14:00:30.963Z,4.50
2018-05-04T14:02:28.081Z,4.70
2018-05-04T14:03:28.083Z,5.10
2018-05-04T14:05:26.578Z,5.20
2018-05-04T14:06:26.587Z,5.10
2018-05-04T14:08:24.931Z,4.30
2018-05-04T14:09:23.998Z,4.40
2018-05-04T14:11:22.127Z,4.50
2018-05-04T14:12:22.119Z,4.90
2018-05-04T14:14:20.122Z,4.70
2018-05-04T14:15:22.094Z,4.70
2018-05-04T14:17:19.084Z,4.70
2018-05-04T14:18:19.091Z,4.60
2018-05-04T14:20:16.701Z,4.90
2018-05-04T14:21:16.194Z,4.70
2018-05-04T14:23:15.137Z,5.40
2018-05-04T14:24:14.661Z,4.90
2018-05-04T14:26:12.191Z,5.50
2018-05-04T14:27:13.136Z,4.60
2018-05-04T14:29:10.688Z,4.70
2018-05-04T14:30:10.666Z,4.80
2018-05-04T14:32:06.151Z,5.00
2018-05-04T14:33:06.114Z,4.50
2018-05-04T14:35:02.185Z,5.20
2018-05-04T14:36:02.093Z,4.80
2018-05-04T14:37:58.082Z,4.50
2018-05-04T14:38:58.060Z,4.90
2018-05-04T14:40:56.044Z,5.00
2018-05-04T14:41:56.513Z,4.60
2018-05-04T14:43:56.491Z,4.50
2018-05-04T14:44:56.600Z,4.20
2018-05-04T14:46:55.441Z,4.50
2018-05-04T14:47:55.425Z,4.60
2018-05-04T14:49:50.420Z,4.50
2018-05-04T14:50:50.461Z,4.60
2018-05-04T14:52:46.331Z,5.40
2018-05-04T14:53:46.361Z,5.00
2018-05-04T14:55:42.343Z,4.50
2018-05-04T14:56:42.310Z,5.40
2018-05-04T14:58:40.339Z,4.50
2018-05-04T14:59:41.284Z,4.20
2018-05-04T15:01:39.222Z,5.10
2018-05-04T15:02:39.147Z,4.50
2018-05-04T15:04:37.376Z,4.60
2018-05-04T15:05:36.806Z,4.30
2018-05-04T15:07:32.286Z,4.10
2018-05-04T15:08:32.291Z,4.40
2018-05-04T15:10:32.256Z,4.70
2018-05-04T15:11:30.235Z,4.50
2018-05-04T15:13:29.704Z,4.80
2018-05-04T15:14:28.209Z,4.60
2018-05-04T15:16:27.189Z,4.30
2018-05-04T15:17:26.657Z,4.40
2018-05-04T15:19:24.599Z,4.60
2018-05-04T15:20:24.118Z,4.40
2018-05-04T15:22:22.201Z,4.50
2018-05-04T15:23:22.205Z,4.10
2018-05-04T15:25:20.186Z,3.90
2018-05-04T15:26:20.694Z,3.90
2018-05-04T15:28:19.140Z,4.20
2018-05-04T15:29:18.598Z,4.70
2018-05-04T15:31:16.191Z,4.20
2018-05-04T15:32:16.198Z,3.70
2018-05-04T15:34:14.699Z,3.50
2018-05-04T15:35:14.680Z,3.90
2018-05-04T15:37:12.247Z,3.80
2018-05-04T15:38:13.044Z,3.90
2018-05-04T15:40:08.253Z,3.80
2018-05-04T15:41:08.218Z,3.80
2018-05-04T15:43:04.225Z,3.70
2018-05-04T15:44:05.199Z,3.60
2018-05-04T15:46:02.780Z,3.90
2018-05-04T15:47:02.173Z,3.90
2018-05-04T15:49:01.637Z,3.30
2018-05-04T15:50:00.285Z,3.40
2018-05-04T15:51:58.777Z,3.80
2018-05-04T15:52:58.274Z,3.30
2018-05-04T15:54:54.246Z,2.90
2018-05-04T15:55:54.198Z,3.20
2018-05-04T15:57:53.694Z,3.30
2018-05-04T15:58:52.173Z,3.50
2018-05-04T16:00:51.138Z,3.40
2018-05-04T16:01:50.656Z,3.60
2018-05-04T16:03:49.096Z,3.90
2018-05-04T16:04:48.092Z,3.20
2018-05-04T16:06:47.587Z,3.50
2018-05-04T16:07:46.211Z,3.30
2018-05-04T16:09:43.181Z,3.50
2018-05-04T16:10:42.672Z,4.30
2018-05-04T16:12:38.116Z,3.70
2018-05-04T16:13:38.151Z,3.60
2018-05-04T16:15:36.132Z,4.60
2018-05-04T16:16:36.030Z,3.70
2018-05-04T16:18:34.032Z,3.50
2018-05-04T16:19:34.531Z,3.60
2018-05-04T16:21:33.005Z,3.40
2018-05-04T16:22:32.088Z,3.80
2018-05-04T16:24:30.094Z,3.30
2018-05-04T16:25:30.054Z,3.20
2018-05-04T16:27:29.517Z,3.30
2018-05-04T16:28:28.944Z,3.50
2018-05-04T16:30:24.500Z,3.20
2018-05-04T16:31:23.986Z,4.10
2018-05-04T16:33:19.920Z,3.50
2018-05-04T16:34:19.930Z,4.30
2018-05-04T16:36:16.418Z,3.70
2018-05-04T16:37:15.852Z,4.00
2018-05-04T16:39:12.317Z,3.40
2018-05-04T16:40:12.309Z,3.60
2018-05-04T16:42:07.771Z,3.40
2018-05-04T16:43:08.263Z,3.40
2018-05-04T16:45:06.714Z,3.10
2018-05-04T16:46:05.713Z,3.60
2018-05-04T16:48:06.214Z,4.10
2018-05-04T16:49:06.689Z,3.50
2018-05-04T16:51:02.183Z,3.60
2018-05-04T16:53:24.465Z,3.30
2018-05-04T16:56:00.458Z,3.60
2018-05-04T16:57:00.483Z,3.40
2018-05-04T16:58:56.911Z,3.30
2018-05-04T16:59:56.441Z,4.00
2018-05-04T17:01:52.409Z,3.80
2018-05-04T17:02:52.419Z,3.80
2018-05-04T17:04:50.385Z,3.30
2018-05-04T17:05:50.398Z,3.90
2018-05-04T17:07:46.863Z,3.40
2018-05-04T17:08:46.359Z,3.30
2018-05-04T17:10:42.842Z,3.50
2018-05-04T17:11:42.327Z,3.70
2018-05-04T17:13:38.318Z,3.30
2018-05-04T17:14:39.730Z,3.40
2018-05-04T17:16:34.313Z,3.70
2018-05-04T17:17:35.245Z,3.60
2018-05-04T17:19:32.725Z,3.70
2018-05-04T17:20:32.229Z,3.70
2018-05-04T17:22:28.715Z,3.40
2018-05-04T17:23:28.196Z,3.30
2018-05-04T17:25:26.318Z,5.10
2018-05-04T17:26:26.353Z,7.00
2018-05-04T17:28:25.781Z,3.70
2018-05-04T17:29:24.293Z,4.10
2018-05-04T17:31:20.276Z,3.70
2018-05-04T17:32:20.369Z,3.60
2018-05-04T17:34:16.736Z,3.80
2018-05-04T17:35:16.715Z,4.00
2018-05-04T17:37:13.174Z,3.30
2018-05-04T17:38:12.142Z,3.50
2018-05-04T17:40:11.670Z,3.40
2018-05-04T17:41:12.048Z,3.40
2018-05-04T17:43:07.226Z,3.80
2018-05-04T17:44:06.221Z,3.90
2018-05-04T17:46:02.699Z,3.70
2018-05-04T17:47:02.696Z,3.80
2018-05-04T17:48:58.632Z,3.90
2018-05-04T17:51:14.055Z,3.50
2018-05-04T17:52:14.056Z,3.90
2018-05-04T17:54:10.029Z,3.60
2018-05-04T17:55:10.086Z,3.70
2018-05-04T17:57:08.973Z,3.70
2018-05-04T17:58:08.006Z,3.80
2018-05-04T18:00:07.469Z,3.80
2018-05-04T18:01:06.973Z,4.10
2018-05-04T18:03:04.178Z,3.70
2018-05-04T18:04:04.117Z,3.60
2018-05-04T18:06:02.056Z,4.10
2018-05-04T18:07:02.075Z,3.70
2018-05-04T18:09:00.021Z,3.70
2018-05-04T18:09:59.999Z,4.20
2018-05-04T18:11:58.967Z,3.90
2018-05-04T18:12:59.987Z,4.30
2018-05-04T18:14:54.048Z,4.20
2018-05-04T18:15:54.048Z,4.30
2018-05-04T18:17:51.034Z,4.40
2018-05-04T18:18:50.510Z,3.80
2018-05-04T18:20:48.471Z,4.10
2018-05-04T18:21:48.463Z,4.10
2018-05-04T18:23:44.021Z,4.20
2018-05-04T18:24:44.415Z,4.10
2018-05-04T18:26:39.846Z,4.70
2018-05-04T18:27:39.864Z,4.20
2018-05-04T18:29:37.876Z,4.40
2018-05-04T18:30:38.361Z,4.20
2018-05-04T18:32:36.277Z,4.50
2018-05-04T18:33:36.268Z,4.30
2018-05-04T18:35:31.800Z,3.80
2018-05-04T18:36:31.805Z,5.00
2018-05-04T18:38:31.267Z,4.30
2018-05-04T18:39:29.924Z,4.70
2018-05-04T18:41:27.857Z,3.80
2018-05-04T18:42:28.366Z,4.10
2018-05-04T18:44:23.855Z,4.30
2018-05-04T18:45:23.806Z,4.00
2018-05-04T18:47:19.751Z,3.90
2018-05-04T18:49:35.714Z,4.70
2018-05-04T18:50:35.713Z,4.10
2018-05-04T18:52:31.646Z,4.40
2018-05-04T18:53:32.187Z,4.50
2018-05-04T18:55:28.624Z,4.00
2018-05-04T18:57:48.631Z,3.80
2018-05-04T18:58:48.598Z,4.60
2018-05-04T19:00:48.587Z,4.40
2018-05-04T19:01:49.066Z,4.00
2018-05-04T19:03:50.007Z,3.90
2018-05-04T19:04:50.008Z,4.10
2018-05-04T19:06:48.499Z,4.10
2018-05-04T19:07:47.149Z,4.40
2018-05-04T19:09:45.281Z,4.00
2018-05-04T19:10:46.094Z,4.20
2018-05-04T19:12:46.233Z,4.60
2018-05-04T19:13:46.219Z,4.20
2018-05-04T19:15:44.663Z,4.60
2018-05-04T19:16:44.204Z,4.50
2018-05-04T19:18:41.740Z,5.00
2018-05-04T19:19:41.738Z,4.40
2018-05-04T19:21:40.223Z,5.00
2018-05-04T19:22:40.197Z,4.50
2018-05-04T19:24:38.645Z,5.20
2018-05-04T19:25:38.640Z,5.20
2018-05-04T19:27:39.611Z,5.10
2018-05-04T19:28:39.620Z,4.80
2018-05-04T19:30:39.291Z,5.60
2018-05-04T19:31:39.314Z,5.70
2018-05-04T19:33:40.714Z,5.10
2018-05-04T19:34:39.752Z,5.30
2018-05-04T19:36:40.214Z,5.60
2018-05-04T19:37:41.204Z,5.00
2018-05-04T19:39:39.665Z,5.40
2018-05-04T19:40:38.140Z,5.90
2018-05-04T19:42:36.137Z,5.90
2018-05-04T19:43:36.620Z,5.10
2018-05-04T19:45:37.572Z,5.50
2018-05-04T19:46:36.551Z,6.00
2018-05-04T19:48:35.484Z,5.70
2018-05-04T19:49:35.471Z,5.30
2018-05-04T19:51:33.103Z,5.10
2018-05-04T19:52:33.705Z,5.70